sensor_id;sensor_type;location;lat;lon;timestamp;P1;durP1;ratioP1;P2;durP2;ratioP2
12816;SDS011;6473;51.552;6.716;2024-03-23T00:55:58;5.38;;;1.92;;
12816;SDS011;6473;51.552;6.716;2024-03-23T00:58:24;8.27;;;2.63;;
12816;SDS011;6473;51.552;6.716;2024-03-23T01:00:51;5.28;;;1.77;;
12816;SDS011;6473;51.552;6.716;2024-03-23T01:03:17;5.63;;;1.60;;
12816;SDS011;6473;51.552;6.716;2024-03-23T01:05:44;3.78;;;1.55;;
12816;SDS011;6473;51.552;6.716;2024-03-23T01:08:10;6.00;;;1.90;;
12816;SDS011;6473;51.552;6.716;2024-03-23T01:10:38;5.65;;;1.92;;
12816;SDS011;6473;51.552;6.716;2024-03-23T01:13:04;3.25;;;1.58;;
12816;SDS011;6473;51.552;6.716;2024-03-23T01:15:30;3.90;;;1.70;;
12816;SDS011;6473;51.552;6.716;2024-03-23T01:17:57;5.10;;;1.60;;
12816;SDS011;6473;51.552;6.716;2024-03-23T01:20:23;4.20;;;1.38;;
12816;SDS011;6473;51.552;6.716;2024-03-23T01:22:50;3.33;;;1.70;;
12816;SDS011;6473;51.552;6.716;2024-03-23T01:25:16;5.80;;;2.00;;
12816;SDS011;6473;51.552;6.716;2024-03-23T01:27:44;5.93;;;1.83;;
12816;SDS011;6473;51.552;6.716;2024-03-23T01:30:10;2.88;;;1.63;;
12816;SDS011;6473;51.552;6.716;2024-03-23T01:32:39;3.25;;;1.70;;
12816;SDS011;6473;51.552;6.716;2024-03-23T01:35:04;4.40;;;2.10;;
12816;SDS011;6473;51.552;6.716;2024-03-23T01:37:31;4.68;;;1.58;;
12816;SDS011;6473;51.552;6.716;2024-03-23T01:39:57;7.43;;;2.33;;
12816;SDS011;6473;51.552;6.716;2024-03-23T01:42:24;5.68;;;2.92;;
12816;SDS011;6473;51.552;6.716;2024-03-23T01:44:52;6.88;;;3.65;;
12816;SDS011;6473;51.552;6.716;2024-03-23T01:47:18;4.82;;;2.45;;
12816;SDS011;6473;51.552;6.716;2024-03-23T01:49:44;5.88;;;2.33;;
12816;SDS011;6473;51.552;6.716;2024-03-23T01:52:11;1.73;;;1.40;;
12816;SDS011;6473;51.552;6.716;2024-03-23T01:54:37;4.80;;;1.67;;
12816;SDS011;6473;51.552;6.716;2024-03-23T01:57:05;4.80;;;1.83;;
12816;SDS011;6473;51.552;6.716;2024-03-23T01:59:31;4.95;;;1.92;;
12816;SDS011;6473;51.552;6.716;2024-03-23T02:01:59;3.92;;;1.70;;
12816;SDS011;6473;51.552;6.716;2024-03-23T02:04:27;7.53;;;2.40;;
12816;SDS011;6473;51.552;6.716;2024-03-23T02:06:53;5.82;;;2.75;;
12816;SDS011;6473;51.552;6.716;2024-03-23T02:09:19;8.02;;;4.60;;
12816;SDS011;6473;51.552;6.716;2024-03-23T02:11:46;5.20;;;2.13;;
12816;SDS011;6473;51.552;6.716;2024-03-23T02:14:12;6.95;;;2.25;;
12816;SDS011;6473;51.552;6.716;2024-03-23T02:16:39;4.18;;;1.70;;
12816;SDS011;6473;51.552;6.716;2024-03-23T02:19:06;4.97;;;1.83;;
12816;SDS011;6473;51.552;6.716;2024-03-23T02:21:33;4.93;;;2.00;;
12816;SDS011;6473;51.552;6.716;2024-03-23T02:24:00;6.70;;;1.83;;
12816;SDS011;6473;51.552;6.716;2024-03-23T02:26:27;4.18;;;1.65;;
12816;SDS011;6473;51.552;6.716;2024-03-23T02:28:53;6.95;;;1.95;;
12816;SDS011;6473;51.552;6.716;2024-03-23T02:31:20;3.35;;;1.90;;
12816;SDS011;6473;51.552;6.716;2024-03-23T02:33:46;8.25;;;3.15;;
12816;SDS011;6473;51.552;6.716;2024-03-23T02:36:12;5.93;;;2.10;;
12816;SDS011;6473;51.552;6.716;2024-03-23T02:38:38;6.45;;;1.98;;
12816;SDS011;6473;51.552;6.716;2024-03-23T02:41:06;6.13;;;1.65;;
12816;SDS011;6473;51.552;6.716;2024-03-23T02:43:33;6.00;;;1.80;;
12816;SDS011;6473;51.552;6.716;2024-03-23T02:45:59;6.13;;;1.63;;
12816;SDS011;6473;51.552;6.716;2024-03-23T02:48:26;4.80;;;1.92;;
12816;SDS011;6473;51.552;6.716;2024-03-23T02:50:52;6.38;;;2.40;;
12816;SDS011;6473;51.552;6.716;2024-03-23T02:53:19;5.05;;;1.73;;
12816;SDS011;6473;51.552;6.716;2024-03-23T02:55:45;6.43;;;1.52;;
12816;SDS011;6473;51.552;6.716;2024-03-23T02:58:13;3.67;;;1.48;;
12816;SDS011;6473;51.552;6.716;2024-03-23T03:00:39;6.03;;;1.90;;
12816;SDS011;6473;51.552;6.716;2024-03-23T03:03:06;3.47;;;2.00;;
12816;SDS011;6473;51.552;6.716;2024-03-23T03:05:32;3.70;;;1.70;;
12816;SDS011;6473;51.552;6.716;2024-03-23T03:07:59;3.30;;;1.88;;
12816;SDS011;6473;51.552;6.716;2024-03-23T03:10:25;6.78;;;1.75;;
12816;SDS011;6473;51.552;6.716;2024-03-23T03:12:51;2.92;;;1.50;;
12816;SDS011;6473;51.552;6.716;2024-03-23T03:15:19;3.83;;;1.70;;
12816;SDS011;6473;51.552;6.716;2024-03-23T03:17:45;4.80;;;1.75;;
12816;SDS011;6473;51.552;6.716;2024-03-23T03:20:11;4.30;;;2.10;;
12816;SDS011;6473;51.552;6.716;2024-03-23T03:22:40;3.30;;;1.52;;
12816;SDS011;6473;51.552;6.716;2024-03-23T03:25:06;3.60;;;1.90;;
12816;SDS011;6473;51.552;6.716;2024-03-23T03:27:33;6.82;;;2.28;;
12816;SDS011;6473;51.552;6.716;2024-03-23T03:29:59;11.15;;;2.17;;
12816;SDS011;6473;51.552;6.716;2024-03-23T03:32:29;4.93;;;1.77;;
12816;SDS011;6473;51.552;6.716;2024-03-23T03:34:55;4.78;;;1.95;;
12816;SDS011;6473;51.552;6.716;2024-03-23T03:37:22;6.20;;;1.77;;
12816;SDS011;6473;51.552;6.716;2024-03-23T03:39:47;4.97;;;1.88;;
12816;SDS011;6473;51.552;6.716;2024-03-23T03:42:14;2.00;;;1.60;;
12816;SDS011;6473;51.552;6.716;2024-03-23T03:44:40;5.07;;;1.77;;
12816;SDS011;6473;51.552;6.716;2024-03-23T03:47:07;7.60;;;2.45;;
12816;SDS011;6473;51.552;6.716;2024-03-23T03:49:34;8.15;;;2.22;;
12816;SDS011;6473;51.552;6.716;2024-03-23T03:52:01;5.03;;;2.05;;
12816;SDS011;6473;51.552;6.716;2024-03-23T03:54:27;4.72;;;2.35;;
12816;SDS011;6473;51.552;6.716;2024-03-23T03:56:54;6.18;;;1.77;;
12816;SDS011;6473;51.552;6.716;2024-03-23T03:59:20;4.43;;;1.70;;
12816;SDS011;6473;51.552;6.716;2024-03-23T04:01:47;5.32;;;2.03;;
12816;SDS011;6473;51.552;6.716;2024-03-23T04:04:12;3.85;;;2.05;;
12816;SDS011;6473;51.552;6.716;2024-03-23T04:06:42;6.65;;;1.83;;
12816;SDS011;6473;51.552;6.716;2024-03-23T04:09:09;9.65;;;2.28;;
12816;SDS011;6473;51.552;6.716;2024-03-23T04:11:36;7.80;;;2.40;;
12816;SDS011;6473;51.552;6.716;2024-03-23T04:14:02;6.85;;;2.13;;
12816;SDS011;6473;51.552;6.716;2024-03-23T04:16:29;4.18;;;2.08;;
12816;SDS011;6473;51.552;6.716;2024-03-23T04:19:00;7.63;;;2.50;;
12816;SDS011;6473;51.552;6.716;2024-03-23T04:21:27;3.67;;;2.33;;
12816;SDS011;6473;51.552;6.716;2024-03-23T04:23:54;6.38;;;2.40;;
12816;SDS011;6473;51.552;6.716;2024-03-23T04:26:21;7.75;;;2.90;;
12816;SDS011;6473;51.552;6.716;2024-03-23T04:28:48;6.10;;;2.80;;
12816;SDS011;6473;51.552;6.716;2024-03-23T04:31:15;6.05;;;2.78;;
12816;SDS011;6473;51.552;6.716;2024-03-23T04:33:42;12.73;;;2.97;;
12816;SDS011;6473;51.552;6.716;2024-03-23T04:36:08;5.60;;;2.38;;
12816;SDS011;6473;51.552;6.716;2024-03-23T04:38:35;5.80;;;2.67;;
12816;SDS011;6473;51.552;6.716;2024-03-23T04:41:03;5.43;;;2.80;;
12816;SDS011;6473;51.552;6.716;2024-03-23T04:43:30;9.90;;;2.97;;
12816;SDS011;6473;51.552;6.716;2024-03-23T04:45:57;8.55;;;3.13;;
12816;SDS011;6473;51.552;6.716;2024-03-23T04:48:24;4.72;;;3.13;;
12816;SDS011;6473;51.552;6.716;2024-03-23T04:50:54;5.80;;;3.60;;
12816;SDS011;6473;51.552;6.716;2024-03-23T04:53:23;7.43;;;3.60;;
12816;SDS011;6473;51.552;6.716;2024-03-23T04:55:54;6.72;;;3.50;;
12816;SDS011;6473;51.552;6.716;2024-03-23T04:58:21;7.47;;;3.45;;
12816;SDS011;6473;51.552;6.716;2024-03-23T05:00:52;7.80;;;3.97;;
12816;SDS011;6473;51.552;6.716;2024-03-23T05:03:19;12.07;;;3.97;;
12816;SDS011;6473;51.552;6.716;2024-03-23T05:05:46;5.95;;;3.35;;
12816;SDS011;6473;51.552;6.716;2024-03-23T05:08:13;9.23;;;4.30;;
12816;SDS011;6473;51.552;6.716;2024-03-23T05:10:41;7.97;;;3.25;;
12816;SDS011;6473;51.552;6.716;2024-03-23T05:13:07;9.98;;;4.13;;
12816;SDS011;6473;51.552;6.716;2024-03-23T05:15:35;6.25;;;3.15;;
12816;SDS011;6473;51.552;6.716;2024-03-23T05:18:01;12.20;;;3.90;;
12816;SDS011;6473;51.552;6.716;2024-03-23T05:20:28;8.23;;;4.18;;
12816;SDS011;6473;51.552;6.716;2024-03-23T05:22:54;11.88;;;4.18;;
12816;SDS011;6473;51.552;6.716;2024-03-23T05:25:21;8.25;;;4.30;;
12816;SDS011;6473;51.552;6.716;2024-03-23T05:27:47;7.75;;;4.35;;
12816;SDS011;6473;51.552;6.716;2024-03-23T05:30:14;10.07;;;4.20;;
12816;SDS011;6473;51.552;6.716;2024-03-23T05:32:42;5.15;;;3.80;;
12816;SDS011;6473;51.552;6.716;2024-03-23T05:35:09;7.65;;;3.95;;
12816;SDS011;6473;51.552;6.716;2024-03-23T05:37:35;9.85;;;4.32;;
12816;SDS011;6473;51.552;6.716;2024-03-23T05:40:03;9.60;;;4.10;;
12816;SDS011;6473;51.552;6.716;2024-03-23T05:42:29;9.45;;;4.45;;
12816;SDS011;6473;51.552;6.716;2024-03-23T05:44:56;8.63;;;4.35;;
12816;SDS011;6473;51.552;6.716;2024-03-23T05:47:22;8.55;;;3.97;;
12816;SDS011;6473;51.552;6.716;2024-03-23T05:49:50;8.70;;;4.32;;
12816;SDS011;6473;51.552;6.716;2024-03-23T05:52:17;9.88;;;3.92;;
12816;SDS011;6473;51.552;6.716;2024-03-23T05:54:46;10.85;;;4.22;;
12816;SDS011;6473;51.552;6.716;2024-03-23T05:57:11;7.07;;;4.40;;
12816;SDS011;6473;51.552;6.716;2024-03-23T05:59:39;5.37;;;4.00;;
12816;SDS011;6473;51.552;6.716;2024-03-23T06:02:05;7.65;;;3.97;;
12816;SDS011;6473;51.552;6.716;2024-03-23T06:04:32;9.48;;;4.03;;
12816;SDS011;6473;51.552;6.716;2024-03-23T06:06:59;6.90;;;3.75;;
12816;SDS011;6473;51.552;6.716;2024-03-23T06:09:26;6.35;;;3.60;;
12816;SDS011;6473;51.552;6.716;2024-03-23T06:11:52;7.95;;;3.72;;
12816;SDS011;6473;51.552;6.716;2024-03-23T06:14:19;7.18;;;3.67;;
12816;SDS011;6473;51.552;6.716;2024-03-23T06:16:45;7.37;;;3.33;;
12816;SDS011;6473;51.552;6.716;2024-03-23T06:19:11;7.47;;;3.38;;
12816;SDS011;6473;51.552;6.716;2024-03-23T06:21:37;8.60;;;3.78;;
12816;SDS011;6473;51.552;6.716;2024-03-23T06:24:06;9.73;;;4.18;;
12816;SDS011;6473;51.552;6.716;2024-03-23T06:26:32;11.35;;;3.53;;
12816;SDS011;6473;51.552;6.716;2024-03-23T06:28:58;7.03;;;3.58;;
12816;SDS011;6473;51.552;6.716;2024-03-23T06:31:24;6.07;;;3.53;;
12816;SDS011;6473;51.552;6.716;2024-03-23T06:33:51;11.48;;;4.20;;
12816;SDS011;6473;51.552;6.716;2024-03-23T06:36:17;8.15;;;3.25;;
12816;SDS011;6473;51.552;6.716;2024-03-23T06:38:44;7.00;;;4.13;;
12816;SDS011;6473;51.552;6.716;2024-03-23T06:41:12;7.55;;;4.03;;
12816;SDS011;6473;51.552;6.716;2024-03-23T06:43:39;11.15;;;4.35;;
12816;SDS011;6473;51.552;6.716;2024-03-23T06:46:05;9.60;;;4.45;;
12816;SDS011;6473;51.552;6.716;2024-03-23T06:48:32;8.27;;;4.38;;
12816;SDS011;6473;51.552;6.716;2024-03-23T06:50:58;13.80;;;4.63;;
12816;SDS011;6473;51.552;6.716;2024-03-23T06:53:25;6.45;;;4.57;;
12816;SDS011;6473;51.552;6.716;2024-03-23T06:55:51;8.95;;;4.75;;
12816;SDS011;6473;51.552;6.716;2024-03-23T06:58:21;11.65;;;4.75;;
12816;SDS011;6473;51.552;6.716;2024-03-23T07:00:49;13.20;;;4.63;;
12816;SDS011;6473;51.552;6.716;2024-03-23T07:03:16;13.30;;;4.68;;
12816;SDS011;6473;51.552;6.716;2024-03-23T07:05:42;11.57;;;4.90;;
12816;SDS011;6473;51.552;6.716;2024-03-23T07:08:11;7.80;;;4.70;;
12816;SDS011;6473;51.552;6.716;2024-03-23T07:10:38;8.38;;;4.03;;
12816;SDS011;6473;51.552;6.716;2024-03-23T07:13:06;6.78;;;3.72;;
12816;SDS011;6473;51.552;6.716;2024-03-23T07:15:33;9.10;;;3.60;;
12816;SDS011;6473;51.552;6.716;2024-03-23T07:18:00;8.38;;;3.90;;
12816;SDS011;6473;51.552;6.716;2024-03-23T07:20:26;6.45;;;4.03;;
12816;SDS011;6473;51.552;6.716;2024-03-23T07:22:55;7.72;;;3.72;;
12816;SDS011;6473;51.552;6.716;2024-03-23T07:25:21;8.55;;;4.57;;
12816;SDS011;6473;51.552;6.716;2024-03-23T07:27:48;8.20;;;3.97;;
12816;SDS011;6473;51.552;6.716;2024-03-23T07:30:14;9.05;;;4.18;;
12816;SDS011;6473;51.552;6.716;2024-03-23T07:32:45;7.35;;;3.35;;
12816;SDS011;6473;51.552;6.716;2024-03-23T07:35:11;5.78;;;3.47;;
12816;SDS011;6473;51.552;6.716;2024-03-23T07:37:37;7.22;;;4.07;;
12816;SDS011;6473;51.552;6.716;2024-03-23T07:40:04;9.32;;;4.20;;
12816;SDS011;6473;51.552;6.716;2024-03-23T07:42:32;8.07;;;3.65;;
12816;SDS011;6473;51.552;6.716;2024-03-23T07:44:57;6.95;;;3.97;;
12816;SDS011;6473;51.552;6.716;2024-03-23T07:47:24;6.60;;;3.15;;
12816;SDS011;6473;51.552;6.716;2024-03-23T07:49:51;6.78;;;3.50;;
12816;SDS011;6473;51.552;6.716;2024-03-23T07:52:18;9.18;;;3.25;;
12816;SDS011;6473;51.552;6.716;2024-03-23T07:54:44;9.50;;;3.85;;
12816;SDS011;6473;51.552;6.716;2024-03-23T07:57:11;7.10;;;3.65;;
12816;SDS011;6473;51.552;6.716;2024-03-23T07:59:36;8.70;;;3.60;;
12816;SDS011;6473;51.552;6.716;2024-03-23T08:02:03;9.43;;;3.38;;
12816;SDS011;6473;51.552;6.716;2024-03-23T08:04:30;6.78;;;3.22;;
12816;SDS011;6473;51.552;6.716;2024-03-23T08:06:58;6.75;;;3.47;;
12816;SDS011;6473;51.552;6.716;2024-03-23T08:09:24;5.90;;;3.03;;
12816;SDS011;6473;51.552;6.716;2024-03-23T08:11:51;6.10;;;2.92;;
12816;SDS011;6473;51.552;6.716;2024-03-23T08:14:16;4.72;;;2.60;;
12816;SDS011;6473;51.552;6.716;2024-03-23T08:16:43;8.55;;;3.72;;
12816;SDS011;6473;51.552;6.716;2024-03-23T08:19:13;6.40;;;2.78;;
12816;SDS011;6473;51.552;6.716;2024-03-23T08:21:40;7.07;;;2.75;;
12816;SDS011;6473;51.552;6.716;2024-03-23T08:24:07;6.80;;;2.50;;
12816;SDS011;6473;51.552;6.716;2024-03-23T08:26:34;7.65;;;2.78;;
12816;SDS011;6473;51.552;6.716;2024-03-23T08:29:02;7.85;;;2.70;;
12816;SDS011;6473;51.552;6.716;2024-03-23T08:31:29;8.30;;;2.78;;
12816;SDS011;6473;51.552;6.716;2024-03-23T08:33:55;7.10;;;2.67;;
12816;SDS011;6473;51.552;6.716;2024-03-23T08:36:22;5.13;;;2.78;;
12816;SDS011;6473;51.552;6.716;2024-03-23T08:38:49;2.95;;;2.00;;
12816;SDS011;6473;51.552;6.716;2024-03-23T08:41:20;5.38;;;2.25;;
12816;SDS011;6473;51.552;6.716;2024-03-23T08:43:46;6.00;;;2.20;;
12816;SDS011;6473;51.552;6.716;2024-03-23T08:46:13;5.65;;;2.42;;
12816;SDS011;6473;51.552;6.716;2024-03-23T08:48:42;4.05;;;2.05;;
12816;SDS011;6473;51.552;6.716;2024-03-23T08:51:09;10.95;;;2.70;;
12816;SDS011;6473;51.552;6.716;2024-03-23T08:53:37;6.45;;;2.70;;
12816;SDS011;6473;51.552;6.716;2024-03-23T08:56:04;7.55;;;2.78;;
12816;SDS011;6473;51.552;6.716;2024-03-23T08:58:33;4.82;;;2.10;;
12816;SDS011;6473;51.552;6.716;2024-03-23T09:01:02;5.43;;;2.50;;
12816;SDS011;6473;51.552;6.716;2024-03-23T09:03:30;4.00;;;2.58;;
12816;SDS011;6473;51.552;6.716;2024-03-23T09:05:56;7.28;;;2.67;;
12816;SDS011;6473;51.552;6.716;2024-03-23T09:08:23;4.22;;;2.20;;
12816;SDS011;6473;51.552;6.716;2024-03-23T09:10:49;6.10;;;2.38;;
12816;SDS011;6473;51.552;6.716;2024-03-23T09:13:16;4.50;;;2.50;;
12816;SDS011;6473;51.552;6.716;2024-03-23T09:15:46;4.43;;;2.20;;
12816;SDS011;6473;51.552;6.716;2024-03-23T09:18:14;3.60;;;2.03;;
12816;SDS011;6473;51.552;6.716;2024-03-23T09:20:40;4.82;;;2.42;;
12816;SDS011;6473;51.552;6.716;2024-03-23T09:23:07;3.75;;;2.15;;
12816;SDS011;6473;51.552;6.716;2024-03-23T09:25:35;6.20;;;2.42;;
12816;SDS011;6473;51.552;6.716;2024-03-23T09:28:03;5.90;;;2.30;;
12816;SDS011;6473;51.552;6.716;2024-03-23T09:30:29;7.13;;;2.28;;
12816;SDS011;6473;51.552;6.716;2024-03-23T09:32:57;4.80;;;2.35;;
12816;SDS011;6473;51.552;6.716;2024-03-23T09:35:23;5.82;;;2.05;;
12816;SDS011;6473;51.552;6.716;2024-03-23T09:37:50;6.45;;;2.55;;
12816;SDS011;6473;51.552;6.716;2024-03-23T09:40:16;7.60;;;2.20;;
12816;SDS011;6473;51.552;6.716;2024-03-23T09:42:42;3.97;;;2.20;;
12816;SDS011;6473;51.552;6.716;2024-03-23T09:45:17;5.15;;;2.60;;
12816;SDS011;6473;51.552;6.716;2024-03-23T09:47:46;6.45;;;2.60;;
12816;SDS011;6473;51.552;6.716;2024-03-23T09:50:13;4.53;;;2.17;;
12816;SDS011;6473;51.552;6.716;2024-03-23T09:52:40;7.78;;;2.17;;
12816;SDS011;6473;51.552;6.716;2024-03-23T09:55:07;3.40;;;1.90;;
12816;SDS011;6473;51.552;6.716;2024-03-23T09:57:35;7.15;;;2.40;;
12816;SDS011;6473;51.552;6.716;2024-03-23T10:00:01;5.72;;;2.10;;
12816;SDS011;6473;51.552;6.716;2024-03-23T10:02:32;6.25;;;2.03;;
12816;SDS011;6473;51.552;6.716;2024-03-23T10:04:59;3.95;;;1.80;;
12816;SDS011;6473;51.552;6.716;2024-03-23T10:07:27;4.40;;;1.90;;
12816;SDS011;6473;51.552;6.716;2024-03-23T10:09:53;4.30;;;2.00;;
12816;SDS011;6473;51.552;6.716;2024-03-23T10:12:20;5.50;;;2.25;;
12816;SDS011;6473;51.552;6.716;2024-03-23T10:14:47;6.60;;;2.00;;
12816;SDS011;6473;51.552;6.716;2024-03-23T10:17:15;6.95;;;2.10;;
12816;SDS011;6473;51.552;6.716;2024-03-23T10:19:43;7.22;;;2.10;;
12816;SDS011;6473;51.552;6.716;2024-03-23T10:22:12;6.63;;;1.92;;
12816;SDS011;6473;51.552;6.716;2024-03-23T10:24:40;4.75;;;1.70;;
12816;SDS011;6473;51.552;6.716;2024-03-23T10:27:07;4.80;;;1.90;;
12816;SDS011;6473;51.552;6.716;2024-03-23T10:29:33;2.72;;;1.38;;
12816;SDS011;6473;51.552;6.716;2024-03-23T10:32:09;2.63;;;1.58;;
12816;SDS011;6473;51.552;6.716;2024-03-23T10:34:36;6.78;;;1.83;;
12816;SDS011;6473;51.552;6.716;2024-03-23T10:37:03;2.75;;;1.15;;
12816;SDS011;6473;51.552;6.716;2024-03-23T10:39:33;1.40;;;0.88;;
12816;SDS011;6473;51.552;6.716;2024-03-23T10:42:06;2.70;;;1.27;;
12816;SDS011;6473;51.552;6.716;2024-03-23T10:44:32;1.70;;;0.80;;
12816;SDS011;6473;51.552;6.716;2024-03-23T10:47:00;1.65;;;0.73;;
12816;SDS011;6473;51.552;6.716;2024-03-23T10:49:28;2.53;;;0.80;;
12816;SDS011;6473;51.552;6.716;2024-03-23T10:51:58;3.05;;;1.25;;
12816;SDS011;6473;51.552;6.716;2024-03-23T10:54:26;1.88;;;0.70;;
12816;SDS011;6473;51.552;6.716;2024-03-23T10:56:58;4.07;;;1.20;;
12816;SDS011;6473;51.552;6.716;2024-03-23T10:59:29;2.15;;;0.95;;
12816;SDS011;6473;51.552;6.716;2024-03-23T11:01:58;3.55;;;1.40;;
12816;SDS011;6473;51.552;6.716;2024-03-23T11:04:31;2.88;;;0.90;;
12816;SDS011;6473;51.552;6.716;2024-03-23T11:07:03;1.38;;;0.90;;
12816;SDS011;6473;51.552;6.716;2024-03-23T11:09:53;2.17;;;0.90;;
12816;SDS011;6473;51.552;6.716;2024-03-23T11:12:27;1.40;;;0.77;;
12816;SDS011;6473;51.552;6.716;2024-03-23T11:14:59;1.65;;;0.95;;
12816;SDS011;6473;51.552;6.716;2024-03-23T11:17:28;2.15;;;1.10;;
12816;SDS011;6473;51.552;6.716;2024-03-23T11:19:54;1.80;;;1.05;;
12816;SDS011;6473;51.552;6.716;2024-03-23T11:22:38;3.10;;;1.40;;
12816;SDS011;6473;51.552;6.716;2024-03-23T11:25:12;1.83;;;1.30;;
12816;SDS011;6473;51.552;6.716;2024-03-23T11:27:39;2.75;;;1.52;;
12816;SDS011;6473;51.552;6.716;2024-03-23T11:30:13;3.28;;;1.50;;
12816;SDS011;6473;51.552;6.716;2024-03-23T11:32:41;2.20;;;1.60;;
12816;SDS011;6473;51.552;6.716;2024-03-23T11:35:08;4.35;;;2.40;;
12816;SDS011;6473;51.552;6.716;2024-03-23T11:37:36;3.80;;;1.58;;
12816;SDS011;6473;51.552;6.716;2024-03-23T11:42:55;2.90;;;1.70;;
12816;SDS011;6473;51.552;6.716;2024-03-23T11:45:22;1.83;;;1.40;;
12816;SDS011;6473;51.552;6.716;2024-03-23T11:48:01;6.10;;;2.13;;
12816;SDS011;6473;51.552;6.716;2024-03-23T11:50:30;2.55;;;1.58;;
12816;SDS011;6473;51.552;6.716;2024-03-23T11:53:06;2.40;;;1.10;;
12816;SDS011;6473;51.552;6.716;2024-03-23T11:55:38;3.15;;;1.65;;
12816;SDS011;6473;51.552;6.716;2024-03-23T11:58:09;1.73;;;1.50;;
12816;SDS011;6473;51.552;6.716;2024-03-23T12:00:36;3.13;;;1.35;;
12816;SDS011;6473;51.552;6.716;2024-03-23T12:03:03;3.00;;;1.40;;
12816;SDS011;6473;51.552;6.716;2024-03-23T12:05:31;3.90;;;1.20;;
12816;SDS011;6473;51.552;6.716;2024-03-23T12:08:15;2.30;;;1.08;;
12816;SDS011;6473;51.552;6.716;2024-03-23T12:10:44;3.67;;;1.17;;
12816;SDS011;6473;51.552;6.716;2024-03-23T12:13:23;1.67;;;1.20;;
12816;SDS011;6473;51.552;6.716;2024-03-23T12:15:50;2.13;;;1.23;;
12816;SDS011;6473;51.552;6.716;2024-03-23T12:18:17;2.47;;;1.35;;
12816;SDS011;6473;51.552;6.716;2024-03-23T12:20:49;2.63;;;1.50;;
12816;SDS011;6473;51.552;6.716;2024-03-23T12:23:16;1.40;;;1.20;;
12816;SDS011;6473;51.552;6.716;2024-03-23T12:25:43;1.90;;;1.20;;
12816;SDS011;6473;51.552;6.716;2024-03-23T12:28:09;3.55;;;1.58;;
12816;SDS011;6473;51.552;6.716;2024-03-23T12:30:35;3.85;;;1.60;;
12816;SDS011;6473;51.552;6.716;2024-03-23T12:33:06;5.55;;;1.80;;
12816;SDS011;6473;51.552;6.716;2024-03-23T12:35:32;3.92;;;1.77;;
12816;SDS011;6473;51.552;6.716;2024-03-23T12:38:00;2.22;;;1.50;;
12816;SDS011;6473;51.552;6.716;2024-03-23T12:40:26;5.13;;;1.60;;
12816;SDS011;6473;51.552;6.716;2024-03-23T12:42:53;4.70;;;1.50;;
12816;SDS011;6473;51.552;6.716;2024-03-23T12:45:20;3.50;;;1.50;;
12816;SDS011;6473;51.552;6.716;2024-03-23T12:47:45;4.70;;;1.58;;
12816;SDS011;6473;51.552;6.716;2024-03-23T12:50:14;3.17;;;1.55;;
12816;SDS011;6473;51.552;6.716;2024-03-23T12:52:40;3.22;;;1.00;;
12816;SDS011;6473;51.552;6.716;2024-03-23T12:55:07;3.13;;;1.77;;
12816;SDS011;6473;51.552;6.716;2024-03-23T12:57:33;3.85;;;1.88;;
12816;SDS011;6473;51.552;6.716;2024-03-23T12:59:59;2.42;;;1.40;;
12816;SDS011;6473;51.552;6.716;2024-03-23T13:02:25;4.63;;;1.73;;
12816;SDS011;6473;51.552;6.716;2024-03-23T13:04:52;4.47;;;1.63;;
12816;SDS011;6473;51.552;6.716;2024-03-23T13:07:20;2.85;;;1.55;;
12816;SDS011;6473;51.552;6.716;2024-03-23T13:09:49;3.83;;;1.58;;
12816;SDS011;6473;51.552;6.716;2024-03-23T13:12:16;2.25;;;1.55;;
12816;SDS011;6473;51.552;6.716;2024-03-23T13:14:43;2.85;;;1.58;;
12816;SDS011;6473;51.552;6.716;2024-03-23T13:17:09;1.98;;;1.40;;
12816;SDS011;6473;51.552;6.716;2024-03-23T13:19:36;3.03;;;1.50;;
12816;SDS011;6473;51.552;6.716;2024-03-23T13:22:03;2.67;;;1.33;;
12816;SDS011;6473;51.552;6.716;2024-03-23T13:24:31;2.50;;;1.58;;
12816;SDS011;6473;51.552;6.716;2024-03-23T13:26:57;6.20;;;1.50;;
12816;SDS011;6473;51.552;6.716;2024-03-23T13:29:24;3.20;;;1.50;;
12816;SDS011;6473;51.552;6.716;2024-03-23T13:31:51;1.50;;;1.40;;
12816;SDS011;6473;51.552;6.716;2024-03-23T13:34:18;2.38;;;1.60;;
12816;SDS011;6473;51.552;6.716;2024-03-23T13:36:44;1.42;;;1.27;;
12816;SDS011;6473;51.552;6.716;2024-03-23T13:39:12;4.40;;;1.70;;
12816;SDS011;6473;51.552;6.716;2024-03-23T13:41:42;3.05;;;1.30;;
12816;SDS011;6473;51.552;6.716;2024-03-23T13:44:09;4.75;;;1.35;;
12816;SDS011;6473;51.552;6.716;2024-03-23T13:46:36;1.75;;;1.23;;
12816;SDS011;6473;51.552;6.716;2024-03-23T13:49:03;1.83;;;1.40;;
12816;SDS011;6473;51.552;6.716;2024-03-23T13:51:29;4.13;;;1.52;;
12816;SDS011;6473;51.552;6.716;2024-03-23T13:53:56;2.65;;;1.30;;
12816;SDS011;6473;51.552;6.716;2024-03-23T13:56:22;2.50;;;1.58;;
12816;SDS011;6473;51.552;6.716;2024-03-23T13:58:51;2.42;;;1.30;;
12816;SDS011;6473;51.552;6.716;2024-03-23T14:01:17;1.45;;;1.30;;
12816;SDS011;6473;51.552;6.716;2024-03-23T14:03:44;2.63;;;1.52;;
12816;SDS011;6473;51.552;6.716;2024-03-23T14:06:10;2.38;;;1.52;;
12816;SDS011;6473;51.552;6.716;2024-03-23T14:08:37;1.80;;;1.30;;
12816;SDS011;6473;51.552;6.716;2024-03-23T14:11:04;3.10;;;1.58;;
12816;SDS011;6473;51.552;6.716;2024-03-23T14:13:31;2.88;;;1.30;;
12816;SDS011;6473;51.552;6.716;2024-03-23T14:15:59;2.97;;;1.35;;
12816;SDS011;6473;51.552;6.716;2024-03-23T14:18:25;3.75;;;1.73;;
12816;SDS011;6473;51.552;6.716;2024-03-23T14:20:51;4.15;;;1.50;;
12816;SDS011;6473;51.552;6.716;2024-03-23T14:23:23;1.23;;;1.13;;
12816;SDS011;6473;51.552;6.716;2024-03-23T14:25:49;2.58;;;1.13;;
12816;SDS011;6473;51.552;6.716;2024-03-23T14:28:16;2.15;;;1.15;;
12816;SDS011;6473;51.552;6.716;2024-03-23T14:30:42;1.40;;;1.27;;
12816;SDS011;6473;51.552;6.716;2024-03-23T14:33:10;2.03;;;1.30;;
12816;SDS011;6473;51.552;6.716;2024-03-23T14:35:36;2.88;;;1.17;;
12816;SDS011;6473;51.552;6.716;2024-03-23T14:38:03;2.35;;;1.40;;
12816;SDS011;6473;51.552;6.716;2024-03-23T14:40:29;2.47;;;1.38;;
12816;SDS011;6473;51.552;6.716;2024-03-23T14:42:56;3.95;;;1.58;;
12816;SDS011;6473;51.552;6.716;2024-03-23T14:45:22;2.63;;;1.20;;
12816;SDS011;6473;51.552;6.716;2024-03-23T14:47:49;3.42;;;1.38;;
12816;SDS011;6473;51.552;6.716;2024-03-23T14:50:17;1.45;;;1.33;;
12816;SDS011;6473;51.552;6.716;2024-03-23T14:52:44;3.13;;;1.25;;
12816;SDS011;6473;51.552;6.716;2024-03-23T14:55:10;1.50;;;1.30;;
12816;SDS011;6473;51.552;6.716;2024-03-23T14:57:37;1.20;;;1.08;;
12816;SDS011;6473;51.552;6.716;2024-03-23T15:00:06;4.00;;;1.35;;
12816;SDS011;6473;51.552;6.716;2024-03-23T15:02:35;3.10;;;1.30;;
12816;SDS011;6473;51.552;6.716;2024-03-23T15:05:01;2.40;;;1.40;;
12816;SDS011;6473;51.552;6.716;2024-03-23T15:07:30;1.75;;;1.15;;
12816;SDS011;6473;51.552;6.716;2024-03-23T15:09:56;3.22;;;1.95;;
12816;SDS011;6473;51.552;6.716;2024-03-23T15:12:23;2.20;;;1.30;;
12816;SDS011;6473;51.552;6.716;2024-03-23T15:14:49;4.90;;;1.58;;
12816;SDS011;6473;51.552;6.716;2024-03-23T15:17:16;2.58;;;1.60;;
12816;SDS011;6473;51.552;6.716;2024-03-23T15:19:41;2.17;;;1.45;;
12816;SDS011;6473;51.552;6.716;2024-03-23T15:22:08;2.28;;;1.20;;
12816;SDS011;6473;51.552;6.716;2024-03-23T15:24:36;3.33;;;1.40;;
12816;SDS011;6473;51.552;6.716;2024-03-23T15:27:03;3.03;;;1.38;;
12816;SDS011;6473;51.552;6.716;2024-03-23T15:29:29;2.78;;;1.17;;
12816;SDS011;6473;51.552;6.716;2024-03-23T15:31:56;1.60;;;0.95;;
12816;SDS011;6473;51.552;6.716;2024-03-23T15:34:22;3.80;;;1.40;;
12816;SDS011;6473;51.552;6.716;2024-03-23T15:36:49;2.97;;;1.30;;
12816;SDS011;6473;51.552;6.716;2024-03-23T15:39:16;2.97;;;1.48;;
12816;SDS011;6473;51.552;6.716;2024-03-23T15:41:47;2.78;;;1.30;;
12816;SDS011;6473;51.552;6.716;2024-03-23T15:44:13;4.22;;;1.40;;
12816;SDS011;6473;51.552;6.716;2024-03-23T15:46:40;6.88;;;2.08;;
12816;SDS011;6473;51.552;6.716;2024-03-23T15:49:06;1.73;;;1.30;;
12816;SDS011;6473;51.552;6.716;2024-03-23T15:51:34;2.60;;;1.20;;
12816;SDS011;6473;51.552;6.716;2024-03-23T15:54:02;1.30;;;1.13;;
12816;SDS011;6473;51.552;6.716;2024-03-23T15:56:29;3.33;;;1.30;;
12816;SDS011;6473;51.552;6.716;2024-03-23T15:58:56;4.15;;;1.25;;